Time;durP1;ratioP1;P1;durP2;ratioP2;P2;SDS_P1;SDS_P2;PMS_P1;PMS_P2;Temp;Humidity;BMP_temperature;BMP_pressure;BME280_temperature;BME280_humidity;BME280_pressure;Samples;Min_cycle;Max_cycle;Signal;HPM_P1;HPM_P2
2023/10/23 00:00:46;;;;;;;9.32;6.07;;;5.80;99.90;;;;;;5045255;28;20055;-73
2023/10/23 00:03:12;;;;;;;9.43;5.82;;;5.90;99.90;;;;;;5028324;28;20037;-73
2023/10/23 00:05:37;;;;;;;9.98;5.28;;;5.80;99.90;;;;;;5025267;28;20500;-73
2023/10/23 00:08:03;;;;;;;10.05;5.60;;;5.80;99.90;;;;;;5047892;28;20038;-72
2023/10/23 00:10:29;;;;;;;10.40;5.45;;;5.70;99.90;;;;;;5020633;28;20045;-72
2023/10/23 00:12:55;;;;;;;9.70;5.28;;;5.60;99.90;;;;;;5029474;28;20510;-72
2023/10/23 00:15:21;;;;;;;8.57;5.05;;;5.50;99.90;;;;;;5029621;28;20430;-72
2023/10/23 00:17:46;;;;;;;6.07;4.15;;;5.40;99.90;;;;;;5040506;28;20090;-72
2023/10/23 00:20:12;;;;;;;7.35;4.95;;;5.40;99.90;;;;;;5053228;28;20033;-72
2023/10/23 00:22:38;;;;;;;8.35;5.38;;;5.30;99.90;;;;;;5047635;28;20125;-72
2023/10/23 00:25:04;;;;;;;8.30;5.47;;;5.30;99.90;;;;;;5056888;28;20037;-72
2023/10/23 00:27:30;;;;;;;12.43;5.65;;;5.30;99.90;;;;;;5046413;28;20594;-72
2023/10/23 00:29:56;;;;;;;9.43;5.15;;;5.30;99.90;;;;;;5032059;28;20033;-72
2023/10/23 00:32:21;;;;;;;6.70;4.68;;;5.40;99.90;;;;;;5038722;28;20044;-72
2023/10/23 00:34:47;;;;;;;8.73;5.13;;;5.30;99.90;;;;;;5030984;28;20076;-72
2023/10/23 00:37:13;;;;;;;8.55;5.13;;;5.30;99.90;;;;;;5022026;28;20126;-72
2023/10/23 00:39:38;;;;;;;12.25;5.45;;;5.30;99.90;;;;;;5016016;28;20188;-72
2023/10/23 00:42:04;;;;;;;12.07;5.22;;;5.30;99.90;;;;;;5030795;28;20033;-72
2023/10/23 00:44:30;;;;;;;10.32;5.57;;;5.30;99.90;;;;;;5033200;28;20063;-71
2023/10/23 00:46:56;;;;;;;9.45;5.53;;;5.30;99.90;;;;;;5042705;28;20128;-72
2023/10/23 00:49:23;;;;;;;9.70;5.80;;;5.30;99.90;;;;;;5037829;28;20037;-72
2023/10/23 00:51:49;;;;;;;9.20;6.00;;;5.20;99.90;;;;;;5046189;28;20060;-72
2023/10/23 00:54:15;;;;;;;9.27;5.85;;;5.20;99.90;;;;;;5041007;28;20079;-73
2023/10/23 00:56:41;;;;;;;10.25;6.40;;;5.30;99.90;;;;;;5047372;28;20045;-73
2023/10/23 00:59:09;;;;;;;10.25;5.63;;;5.30;99.90;;;;;;5033030;28;20045;-73
2023/10/23 01:01:35;;;;;;;9.43;5.60;;;5.20;99.90;;;;;;5042557;28;20033;-73
2023/10/23 01:04:03;;;;;;;8.90;5.57;;;5.20;99.90;;;;;;5030386;28;20091;-73
2023/10/23 01:06:30;;;;;;;8.52;5.55;;;5.20;99.90;;;;;;5021749;28;20036;-73
2023/10/23 01:08:56;;;;;;;8.63;5.60;;;5.10;99.90;;;;;;5055771;28;20083;-73
2023/10/23 01:11:22;;;;;;;10.18;6.03;;;5.20;99.90;;;;;;5035154;28;20045;-73
2023/10/23 01:13:47;;;;;;;10.23;5.95;;;5.10;99.90;;;;;;5023120;28;20036;-73
2023/10/23 01:16:13;;;;;;;9.55;6.28;;;5.10;99.90;;;;;;5048201;28;21580;-73
2023/10/23 01:18:39;;;;;;;8.93;5.22;;;5.10;99.90;;;;;;5028014;28;20091;-72
2023/10/23 01:21:05;;;;;;;11.27;5.30;;;5.10;99.90;;;;;;5059593;28;20032;-73
2023/10/23 01:23:34;;;;;;;8.20;5.70;;;5.10;99.90;;;;;;5045472;28;20559;-72
2023/10/23 01:26:00;;;;;;;7.32;5.35;;;5.00;99.90;;;;;;5033990;28;20037;-72
2023/10/23 01:28:26;;;;;;;9.23;5.50;;;5.00;99.90;;;;;;5038491;28;20060;-72
2023/10/23 01:30:52;;;;;;;10.30;5.28;;;4.90;99.90;;;;;;5029490;28;20495;-72
2023/10/23 01:33:17;;;;;;;11.77;5.72;;;4.90;99.90;;;;;;5060544;28;20462;-72
2023/10/23 01:35:43;;;;;;;11.60;5.75;;;4.90;99.90;;;;;;5016989;28;20567;-72
2023/10/23 01:38:09;;;;;;;9.13;5.35;;;4.90;99.90;;;;;;5043452;28;20037;-73
2023/10/23 01:40:35;;;;;;;8.38;5.10;;;4.80;99.90;;;;;;5041923;28;20445;-72
2023/10/23 01:43:01;;;;;;;6.97;4.93;;;4.80;99.90;;;;;;5039908;28;20041;-73
2023/10/23 01:45:26;;;;;;;9.75;5.20;;;4.70;99.90;;;;;;5047361;28;21013;-72
2023/10/23 01:47:52;;;;;;;8.50;5.13;;;4.70;99.90;;;;;;5034247;28;20095;-72
2023/10/23 01:50:17;;;;;;;9.25;4.70;;;4.60;99.90;;;;;;5057905;28;20049;-73
2023/10/23 01:52:44;;;;;;;7.50;4.93;;;4.60;99.90;;;;;;5028696;28;20043;-73
2023/10/23 01:55:11;;;;;;;6.55;4.38;;;4.50;99.90;;;;;;5021403;28;20039;-72
2023/10/23 01:57:37;;;;;;;6.60;4.63;;;4.50;99.90;;;;;;5044945;28;20215;-72
2023/10/23 02:00:04;;;;;;;12.77;5.60;;;4.50;99.90;;;;;;5036216;28;20088;-72
2023/10/23 02:02:31;;;;;;;10.20;5.97;;;4.50;99.90;;;;;;5034805;28;20041;-72
2023/10/23 02:04:57;;;;;;;8.98;5.75;;;4.50;99.90;;;;;;5038707;28;20090;-72
2023/10/23 02:07:23;;;;;;;8.15;5.30;;;4.60;99.90;;;;;;5060644;28;20514;-72
2023/10/23 02:09:49;;;;;;;10.13;4.95;;;4.60;99.90;;;;;;5039661;28;20045;-72
2023/10/23 02:12:14;;;;;;;9.85;5.55;;;4.60;99.90;;;;;;5025179;28;20089;-72
2023/10/23 02:14:40;;;;;;;8.73;5.03;;;4.50;99.90;;;;;;5027627;28;20037;-72
2023/10/23 02:17:05;;;;;;;10.38;5.20;;;4.50;99.90;;;;;;5036264;28;20041;-72
2023/10/23 02:19:31;;;;;;;8.30;5.63;;;4.50;99.90;;;;;;5041555;28;20033;-72
2023/10/23 02:21:57;;;;;;;8.18;4.97;;;4.40;99.90;;;;;;5041836;28;20044;-72
2023/10/23 02:24:22;;;;;;;7.78;5.30;;;4.40;99.90;;;;;;5028836;28;20037;-72
2023/10/23 02:26:48;;;;;;;11.70;6.05;;;4.30;99.90;;;;;;5019994;28;20491;-72
2023/10/23 02:29:14;;;;;;;9.88;5.88;;;4.40;99.90;;;;;;5020724;28;20682;-72
2023/10/23 02:31:40;;;;;;;7.75;5.43;;;4.40;99.90;;;;;;5046548;28;20044;-72
2023/10/23 02:34:06;;;;;;;8.32;5.80;;;4.40;99.90;;;;;;5028991;28;20449;-72
2023/10/23 02:36:32;;;;;;;11.63;6.50;;;4.40;99.90;;;;;;5028211;28;20076;-73
2023/10/23 02:38:59;;;;;;;9.52;5.60;;;4.50;99.90;;;;;;5046009;28;20037;-72
2023/10/23 02:41:27;;;;;;;12.93;6.30;;;4.50;99.90;;;;;;5045283;28;20116;-72
2023/10/23 02:43:53;;;;;;;11.38;6.93;;;4.60;99.90;;;;;;5038214;28;20086;-71
2023/10/23 02:46:20;;;;;;;9.18;6.25;;;4.60;99.90;;;;;;5059691;28;20033;-72
2023/10/23 02:48:45;;;;;;;11.55;6.70;;;4.70;99.90;;;;;;5029536;28;20127;-72
2023/10/23 02:51:11;;;;;;;10.48;6.22;;;4.70;99.90;;;;;;5040879;28;20554;-73
2023/10/23 02:53:37;;;;;;;10.43;6.20;;;4.70;99.90;;;;;;5037180;28;20482;-72
2023/10/23 02:56:03;;;;;;;10.50;6.47;;;4.70;99.90;;;;;;5045037;28;20143;-73
2023/10/23 02:58:28;;;;;;;11.23;5.88;;;4.60;99.90;;;;;;5032025;28;20135;-73
2023/10/23 03:00:54;;;;;;;7.93;4.60;;;4.60;99.90;;;;;;5025186;28;20037;-72
2023/10/23 03:03:20;;;;;;;5.53;4.03;;;4.50;99.90;;;;;;5036181;28;20033;-73
2023/10/23 03:05:45;;;;;;;5.53;3.75;;;4.40;99.90;;;;;;5040052;28;20081;-73
2023/10/23 03:08:11;;;;;;;5.18;3.35;;;4.40;99.90;;;;;;5021830;28;20120;-73
2023/10/23 03:10:37;;;;;;;5.55;3.70;;;4.40;99.90;;;;;;5038758;28;20076;-73
2023/10/23 03:13:02;;;;;;;5.13;3.70;;;4.40;99.90;;;;;;5044292;28;20120;-73
2023/10/23 03:15:28;;;;;;;5.30;3.63;;;4.30;99.90;;;;;;5050114;28;20178;-73
2023/10/23 03:17:54;;;;;;;6.30;4.18;;;4.30;99.90;;;;;;5049878;28;20041;-73
2023/10/23 03:20:20;;;;;;;5.55;4.25;;;4.30;99.90;;;;;;5025936;28;20097;-73
2023/10/23 03:22:45;;;;;;;5.45;3.95;;;4.30;99.90;;;;;;5022715;28;20139;-72
2023/10/23 03:25:11;;;;;;;4.82;3.80;;;4.30;99.90;;;;;;5029201;28;20499;-73
2023/10/23 03:27:37;;;;;;;5.88;4.35;;;4.20;99.90;;;;;;5030695;28;20045;-72
2023/10/23 03:30:03;;;;;;;8.25;5.60;;;4.10;99.90;;;;;;5042434;28;20037;-73
2023/10/23 03:32:29;;;;;;;7.75;4.90;;;4.10;99.90;;;;;;5041161;28;20485;-73
2023/10/23 03:34:55;;;;;;;8.00;4.68;;;4.10;99.90;;;;;;5051084;28;20068;-73
2023/10/23 03:37:20;;;;;;;6.82;4.80;;;4.10;99.90;;;;;;5038009;28;20049;-72
2023/10/23 03:39:46;;;;;;;7.22;5.35;;;4.10;99.90;;;;;;5052904;28;20037;-73
2023/10/23 03:42:12;;;;;;;8.90;5.43;;;4.10;99.90;;;;;;5044808;28;20123;-73
2023/10/23 03:44:38;;;;;;;10.48;6.20;;;4.10;99.90;;;;;;5028190;28;20021;-72
2023/10/23 03:47:04;;;;;;;8.90;5.25;;;4.00;99.90;;;;;;5041112;28;20194;-72
2023/10/23 03:49:30;;;;;;;10.20;5.68;;;4.00;99.90;;;;;;5057063;28;20033;-73
2023/10/23 03:51:55;;;;;;;11.82;6.43;;;4.00;99.90;;;;;;5038332;28;20087;-72
2023/10/23 03:54:21;;;;;;;10.07;6.72;;;4.00;99.90;;;;;;5034909;28;20029;-72
2023/10/23 03:56:47;;;;;;;8.77;5.82;;;4.10;99.90;;;;;;5054878;28;20053;-73
2023/10/23 03:59:12;;;;;;;12.40;6.50;;;4.10;99.90;;;;;;5058611;28;20102;-72
2023/10/23 04:01:38;;;;;;;9.32;6.03;;;4.10;99.90;;;;;;5058689;28;20029;-73
2023/10/23 04:04:04;;;;;;;9.15;6.38;;;4.20;99.90;;;;;;5043632;28;20059;-72
2023/10/23 04:06:29;;;;;;;9.57;6.55;;;4.20;99.90;;;;;;5053766;28;20039;-73
2023/10/23 04:08:55;;;;;;;8.63;6.28;;;4.20;99.90;;;;;;5061635;28;20056;-72
2023/10/23 04:11:21;;;;;;;11.65;6.60;;;4.10;99.90;;;;;;5039334;28;20053;-72
2023/10/23 04:13:47;;;;;;;11.05;6.45;;;4.10;99.90;;;;;;5042254;28;20124;-73
2023/10/23 04:16:14;;;;;;;11.15;6.78;;;4.00;99.90;;;;;;5024139;28;20128;-72
2023/10/23 04:18:40;;;;;;;13.02;7.03;;;4.00;99.90;;;;;;5035166;28;20041;-72
2023/10/23 04:21:07;;;;;;;10.98;6.70;;;4.10;99.90;;;;;;5028601;28;20560;-73
2023/10/23 04:23:34;;;;;;;8.98;6.57;;;4.00;99.90;;;;;;5024986;28;20037;-73
2023/10/23 04:26:01;;;;;;;11.13;7.80;;;4.10;99.90;;;;;;5035844;28;20039;-72
2023/10/23 04:28:27;;;;;;;16.85;8.70;;;4.10;99.90;;;;;;5033102;28;20077;-72
2023/10/23 04:30:53;;;;;;;12.93;8.00;;;4.10;99.90;;;;;;5041867;28;20142;-72
2023/10/23 04:33:22;;;;;;;12.50;7.60;;;4.20;99.90;;;;;;5041690;28;20125;-72
2023/10/23 04:35:52;;;;;;;16.67;8.95;;;4.20;99.90;;;;;;5036443;28;20124;-72
2023/10/23 04:38:18;;;;;;;16.27;9.32;;;4.20;99.90;;;;;;5047126;28;20368;-72
2023/10/23 04:40:44;;;;;;;11.85;7.40;;;4.20;99.90;;;;;;5038780;28;20099;-72
2023/10/23 04:43:10;;;;;;;10.23;7.50;;;4.20;99.90;;;;;;5056781;28;20041;-72
2023/10/23 04:45:36;;;;;;;9.68;6.40;;;4.10;99.90;;;;;;5025988;28;20111;-73
2023/10/23 04:48:02;;;;;;;9.82;6.03;;;4.00;99.90;;;;;;5051045;28;20048;-72
2023/10/23 04:50:31;;;;;;;14.32;7.55;;;4.10;99.90;;;;;;5036927;28;20137;-72
2023/10/23 04:52:59;;;;;;;13.95;8.05;;;4.00;99.90;;;;;;5025424;28;21725;-72
2023/10/23 04:55:25;;;;;;;12.05;7.30;;;4.00;99.90;;;;;;5036568;28;20037;-72
2023/10/23 04:57:51;;;;;;;10.52;7.10;;;4.00;99.90;;;;;;5015730;28;20045;-72
2023/10/23 05:00:18;;;;;;;12.77;7.68;;;4.00;99.90;;;;;;5029598;28;20044;-72
2023/10/23 05:02:46;;;;;;;12.23;7.40;;;3.90;99.90;;;;;;5060638;28;20053;-71
2023/10/23 05:05:12;;;;;;;11.27;7.93;;;3.90;99.90;;;;;;5023585;28;20037;-72
2023/10/23 05:07:38;;;;;;;14.77;7.70;;;3.90;99.90;;;;;;5036629;28;20094;-72
2023/10/23 05:10:06;;;;;;;12.65;8.15;;;3.90;99.90;;;;;;5040790;28;20076;-72
2023/10/23 05:12:31;;;;;;;11.73;7.68;;;3.80;99.90;;;;;;5026736;28;20048;-72
2023/10/23 05:14:57;;;;;;;12.70;7.97;;;3.80;99.90;;;;;;5048830;28;20045;-72
2023/10/23 05:17:24;;;;;;;15.10;8.60;;;3.80;99.90;;;;;;5048492;28;20044;-72
2023/10/23 05:19:50;;;;;;;11.50;7.30;;;3.80;99.90;;;;;;5037323;28;20082;-73
2023/10/23 05:22:15;;;;;;;11.02;7.10;;;3.80;99.90;;;;;;5027889;28;20048;-72
2023/10/23 05:24:45;;;;;;;9.75;6.55;;;3.70;99.90;;;;;;5042732;28;20037;-72
2023/10/23 05:27:11;;;;;;;13.63;7.47;;;3.70;99.90;;;;;;5031564;28;20494;-72
2023/10/23 05:29:37;;;;;;;15.52;7.53;;;3.70;99.90;;;;;;5031216;28;20621;-72
2023/10/23 05:32:03;;;;;;;12.02;7.65;;;3.70;99.90;;;;;;5027681;28;20083;-73
2023/10/23 05:34:29;;;;;;;12.80;7.43;;;3.70;99.90;;;;;;5055909;28;20059;-73
2023/10/23 05:36:54;;;;;;;11.90;7.50;;;3.70;99.90;;;;;;5048849;28;20419;-72
2023/10/23 05:39:20;;;;;;;12.18;7.03;;;3.70;99.90;;;;;;5056070;28;20037;-72
2023/10/23 05:41:46;;;;;;;15.30;7.60;;;3.70;99.90;;;;;;5026498;28;20048;-72
2023/10/23 05:44:11;;;;;;;11.40;6.65;;;3.60;99.90;;;;;;5031308;28;20037;-72
2023/10/23 05:46:37;;;;;;;10.27;6.82;;;3.60;99.90;;;;;;5030506;28;20036;-72
2023/10/23 05:49:03;;;;;;;11.35;6.57;;;3.60;99.90;;;;;;5028722;28;20116;-73
2023/10/23 05:51:28;;;;;;;11.68;7.05;;;3.60;99.90;;;;;;5046929;28;20037;-72
2023/10/23 05:53:56;;;;;;;11.80;6.88;;;3.60;99.90;;;;;;5030992;28;20435;-73
2023/10/23 05:56:22;;;;;;;11.38;6.72;;;3.60;99.90;;;;;;5029290;28;20057;-72
2023/10/23 05:58:48;;;;;;;12.82;8.30;;;3.60;99.90;;;;;;5045539;28;20040;-72
2023/10/23 06:01:14;;;;;;;15.80;7.03;;;3.50;99.90;;;;;;5051923;28;20028;-72
2023/10/23 06:03:40;;;;;;;11.65;7.40;;;3.50;99.90;;;;;;5040494;28;20044;-72
2023/10/23 06:06:06;;;;;;;9.45;5.72;;;3.50;99.90;;;;;;5030656;28;20048;-72
2023/10/23 06:08:31;;;;;;;11.35;5.78;;;3.50;99.90;;;;;;5025001;28;20070;-72
2023/10/23 06:10:57;;;;;;;11.02;5.95;;;3.60;99.90;;;;;;5040076;28;20487;-72
2023/10/23 06:13:23;;;;;;;7.85;5.38;;;3.60;99.90;;;;;;5053778;28;20045;-75
2023/10/23 06:15:49;;;;;;;10.27;6.85;;;3.50;99.90;;;;;;5033220;28;20056;-75
2023/10/23 06:18:14;;;;;;;10.88;7.13;;;3.50;99.90;;;;;;5055431;28;20037;-76
2023/10/23 06:20:40;;;;;;;11.52;7.45;;;3.50;99.90;;;;;;5042197;28;20174;-75
2023/10/23 06:23:06;;;;;;;10.63;6.88;;;3.40;99.90;;;;;;5044265;28;20040;-75
2023/10/23 06:25:32;;;;;;;12.27;7.85;;;3.40;99.90;;;;;;5046563;28;20047;-75
2023/10/23 06:27:59;;;;;;;9.80;7.07;;;3.40;99.90;;;;;;5039599;28;20041;-75
2023/10/23 06:30:25;;;;;;;12.40;7.93;;;3.40;99.90;;;;;;5041757;28;20041;-74
2023/10/23 06:32:50;;;;;;;10.93;6.93;;;3.40;99.90;;;;;;5029528;28;20029;-75
2023/10/23 06:35:16;;;;;;;12.48;7.85;;;3.40;99.90;;;;;;5045467;28;20060;-75
2023/10/23 06:37:42;;;;;;;13.27;8.25;;;3.40;99.90;;;;;;5038869;28;20045;-75
2023/10/23 06:40:08;;;;;;;12.07;7.90;;;3.50;99.90;;;;;;5044815;28;20063;-76
2023/10/23 06:42:34;;;;;;;13.00;7.72;;;3.50;99.90;;;;;;5039155;28;20155;-76
2023/10/23 06:45:00;;;;;;;13.40;7.65;;;3.50;99.90;;;;;;5044188;28;20052;-76
2023/10/23 06:47:26;;;;;;;14.40;9.00;;;3.50;99.90;;;;;;5038726;28;20033;-76
2023/10/23 06:49:52;;;;;;;13.45;9.18;;;3.50;99.90;;;;;;5030973;28;20624;-77
2023/10/23 06:52:18;;;;;;;20.52;11.63;;;3.50;99.90;;;;;;5038073;28;20123;-76
2023/10/23 06:54:43;;;;;;;25.45;13.52;;;3.50;99.90;;;;;;5048176;28;20032;-76
2023/10/23 06:57:09;;;;;;;21.98;13.25;;;3.60;99.90;;;;;;5045890;28;20442;-76
2023/10/23 06:59:38;;;;;;;20.75;12.63;;;3.60;99.90;;;;;;5036954;28;20144;-76
2023/10/23 07:02:03;;;;;;;21.25;13.38;;;3.60;99.90;;;;;;5058735;28;20070;-75
2023/10/23 07:04:29;;;;;;;24.73;14.45;;;3.60;99.90;;;;;;5021042;28;20110;-76
2023/10/23 07:06:55;;;;;;;13.75;9.50;;;3.60;99.90;;;;;;5047175;28;20391;-75
2023/10/23 07:09:21;;;;;;;9.40;6.43;;;3.70;99.90;;;;;;5044510;28;20043;-76
2023/10/23 07:11:51;;;;;;;7.82;5.78;;;3.80;99.90;;;;;;5038626;28;20049;-75
2023/10/23 07:14:17;;;;;;;7.35;5.75;;;3.80;99.90;;;;;;5028253;28;20123;-75
2023/10/23 07:16:42;;;;;;;9.85;5.78;;;3.80;99.90;;;;;;5032280;28;20044;-75
2023/10/23 07:19:10;;;;;;;7.40;5.45;;;3.80;99.90;;;;;;5069538;28;20037;-75
2023/10/23 07:21:36;;;;;;;9.63;5.85;;;3.80;99.90;;;;;;5043639;28;20045;-75
2023/10/23 07:24:02;;;;;;;8.00;5.53;;;3.90;99.90;;;;;;5038556;28;20207;-75
2023/10/23 07:26:28;;;;;;;7.80;5.45;;;3.80;99.90;;;;;;5037774;28;20072;-75
2023/10/23 07:28:54;;;;;;;8.35;5.70;;;3.90;99.90;;;;;;5041194;28;20084;-75
2023/10/23 07:31:20;;;;;;;6.95;5.38;;;3.90;99.90;;;;;;5047328;28;20159;-75
2023/10/23 07:33:45;;;;;;;8.50;5.53;;;3.90;99.90;;;;;;5044540;28;20136;-75
2023/10/23 07:36:13;;;;;;;8.32;5.45;;;3.90;99.90;;;;;;5050560;28;20036;-75
2023/10/23 07:38:44;;;;;;;9.88;5.80;;;4.00;99.90;;;;;;5046962;28;20034;-75
2023/10/23 07:41:11;;;;;;;10.82;6.80;;;4.00;99.90;;;;;;5027909;28;20530;-75
2023/10/23 07:43:37;;;;;;;8.57;6.05;;;4.00;99.90;;;;;;5043776;28;20048;-74
2023/10/23 07:46:08;;;;;;;10.23;7.13;;;4.00;99.90;;;;;;5030784;28;20033;-75
2023/10/23 07:48:34;;;;;;;12.85;7.80;;;4.10;99.90;;;;;;5047132;28;20065;-75
2023/10/23 07:51:03;;;;;;;10.65;7.82;;;4.10;99.90;;;;;;5040695;28;20033;-75
2023/10/23 07:53:31;;;;;;;14.07;9.23;;;4.20;99.90;;;;;;5041474;28;20043;-81
2023/10/23 07:55:58;;;;;;;17.33;10.50;;;4.30;99.90;;;;;;5043205;28;20053;-80
2023/10/23 07:58:23;;;;;;;17.60;10.80;;;4.50;99.90;;;;;;5035348;28;20084;-80
2023/10/23 08:00:51;;;;;;;23.50;15.07;;;4.60;99.90;;;;;;5028117;28;20518;-81
2023/10/23 08:03:17;;;;;;;26.15;17.05;;;4.80;99.90;;;;;;5038562;28;20072;-81
2023/10/23 08:05:43;;;;;;;24.33;14.40;;;5.00;99.90;;;;;;5027308;28;20152;-81
2023/10/23 08:08:09;;;;;;;29.48;15.75;;;5.20;99.90;;;;;;5029585;28;20103;-81
2023/10/23 08:10:35;;;;;;;25.35;13.35;;;5.40;99.90;;;;;;5062536;28;20487;-81
2023/10/23 08:13:00;;;;;;;27.25;15.88;;;5.60;99.90;;;;;;5046067;28;20044;-81
2023/10/23 08:15:26;;;;;;;25.67;14.52;;;5.70;99.90;;;;;;5035433;28;20041;-81
2023/10/23 08:17:51;;;;;;;26.13;14.73;;;5.90;99.90;;;;;;5042768;28;20687;-81
2023/10/23 08:20:17;;;;;;;26.60;13.73;;;6.10;99.90;;;;;;5041525;28;20067;-81
2023/10/23 08:22:43;;;;;;;26.13;13.70;;;6.20;99.90;;;;;;5030889;28;20119;-81
2023/10/23 08:25:09;;;;;;;31.35;14.68;;;6.30;99.90;;;;;;5032988;28;20176;-81
2023/10/23 08:27:34;;;;;;;26.02;14.35;;;6.50;99.90;;;;;;5046658;28;20036;-81
2023/10/23 08:30:00;;;;;;;30.20;15.20;;;6.60;99.90;;;;;;5039365;28;20487;-81
2023/10/23 08:32:26;;;;;;;42.85;21.80;;;6.70;99.90;;;;;;5045454;28;20542;-81
2023/10/23 08:34:53;;;;;;;69.15;36.78;;;6.90;99.90;;;;;;5046146;28;20044;-81
2023/10/23 08:37:20;;;;;;;37.65;20.05;;;7.00;99.90;;;;;;5042970;28;20133;-81
2023/10/23 08:39:45;;;;;;;32.33;19.10;;;7.10;99.90;;;;;;5054577;28;20045;-81
2023/10/23 08:42:11;;;;;;;34.15;19.20;;;7.20;99.90;;;;;;5042774;28;20032;-81
2023/10/23 08:44:37;;;;;;;33.60;17.98;;;7.30;99.90;;;;;;5035120;28;20034;-81
2023/10/23 08:47:03;;;;;;;29.30;15.88;;;7.30;99.90;;;;;;5031473;28;20407;-81
2023/10/23 08:49:29;;;;;;;31.13;16.10;;;7.50;99.90;;;;;;5051789;28;20037;-81
2023/10/23 08:51:58;;;;;;;36.22;17.30;;;7.60;99.90;;;;;;5048979;28;20116;-81
2023/10/23 08:54:24;;;;;;;31.23;15.68;;;7.80;99.90;;;;;;5031717;28;20084;-81
2023/10/23 08:56:59;;;;;;;30.25;15.57;;;7.90;99.90;;;;;;5032545;28;20052;-81
2023/10/23 08:59:24;;;;;;;30.90;16.02;;;7.90;99.90;;;;;;5051234;28;20047;-81
2023/10/23 09:01:50;;;;;;;28.98;15.32;;;8.00;99.90;;;;;;5029952;28;20413;-81
2023/10/23 09:04:16;;;;;;;30.73;15.57;;;8.00;99.90;;;;;;5037632;28;20111;-81
2023/10/23 09:06:42;;;;;;;27.40;14.82;;;8.20;99.90;;;;;;5044830;28;20414;-81
2023/10/23 09:09:08;;;;;;;29.25;15.15;;;8.30;99.90;;;;;;5036386;28;20117;-81
2023/10/23 09:11:45;;;;;;;31.33;15.10;;;8.40;99.90;;;;;;5050547;28;20040;-81
2023/10/23 09:14:25;;;;;;;30.55;16.25;;;8.50;99.90;;;;;;5045265;28;20048;-82
2023/10/23 09:16:52;;;;;;;30.95;15.88;;;8.60;99.90;;;;;;5022142;28;20041;-81
2023/10/23 09:19:36;;;;;;;29.55;14.90;;;8.80;99.90;;;;;;5036042;28;20132;-82
2023/10/23 09:22:03;;;;;;;29.60;14.82;;;9.00;99.90;;;;;;5030766;28;20175;-82
2023/10/23 09:24:30;;;;;;;30.67;14.57;;;9.10;99.90;;;;;;5036998;28;20037;-81
2023/10/23 09:26:56;;;;;;;28.80;14.45;;;9.10;99.90;;;;;;5036642;28;20119;-81
2023/10/23 09:29:23;;;;;;;27.85;14.70;;;9.10;99.90;;;;;;5047793;28;20090;-81
2023/10/23 09:31:50;;;;;;;24.20;13.75;;;9.00;99.90;;;;;;5030650;28;20120;-82
2023/10/23 09:34:18;;;;;;;23.38;13.13;;;9.00;99.90;;;;;;5030545;28;20395;-81
2023/10/23 09:36:50;;;;;;;22.77;13.05;;;9.10;99.90;;;;;;5032750;28;20518;-81
2023/10/23 09:39:16;;;;;;;25.80;13.75;;;9.10;99.90;;;;;;5047542;28;20041;-82
2023/10/23 09:41:44;;;;;;;26.58;13.13;;;9.20;99.90;;;;;;5030876;28;20037;-81
2023/10/23 09:44:12;;;;;;;19.92;11.70;;;9.20;99.90;;;;;;5030648;28;20048;-82
2023/10/23 09:46:39;;;;;;;22.13;11.18;;;9.20;99.90;;;;;;5046594;28;20659;-82
2023/10/23 09:49:05;;;;;;;22.77;12.05;;;9.30;99.90;;;;;;5022193;28;20359;-82
2023/10/23 09:51:39;;;;;;;24.15;13.20;;;9.40;99.90;;;;;;5028189;28;20430;-82
2023/10/23 09:54:19;;;;;;;22.83;13.60;;;9.50;99.90;;;;;;5045698;28;20049;-82
2023/10/23 09:56:48;;;;;;;23.00;12.25;;;9.70;99.90;;;;;;5046433;28;20054;-82
2023/10/23 09:59:20;;;;;;;22.48;13.77;;;9.80;99.90;;;;;;5044625;28;20045;-83
2023/10/23 10:01:50;;;;;;;20.75;12.43;;;9.90;99.90;;;;;;5040668;28;20041;-83
2023/10/23 10:04:29;;;;;;;19.27;11.07;;;10.00;99.90;;;;;;5041623;28;20041;-83
2023/10/23 10:07:04;;;;;;;17.25;9.93;;;10.10;99.90;;;;;;5038222;28;20048;-82
2023/10/23 10:09:31;;;;;;;20.47;10.03;;;10.20;99.90;;;;;;5045106;28;20541;-83
2023/10/23 10:11:58;;;;;;;18.42;9.85;;;10.30;99.90;;;;;;5044490;28;20055;-83
2023/10/23 10:14:27;;;;;;;14.93;8.75;;;10.30;99.90;;;;;;5028054;28;20037;-83
2023/10/23 10:16:57;;;;;;;16.33;8.52;;;10.50;99.90;;;;;;5037520;28;20041;-83
2023/10/23 10:19:26;;;;;;;15.18;8.13;;;10.60;99.90;;;;;;5020621;28;20059;-84
2023/10/23 10:22:14;;;;;;;11.48;7.57;;;10.70;99.90;;;;;;5021696;28;20469;-84
2023/10/23 10:24:41;;;;;;;9.55;6.18;;;10.80;99.90;;;;;;5044604;28;20078;-83
2023/10/23 10:27:07;;;;;;;10.38;5.13;;;10.90;99.90;;;;;;5046694;28;20433;-84
2023/10/23 10:29:33;;;;;;;10.85;5.00;;;10.90;99.90;;;;;;5042868;28;20047;-83
2023/10/23 10:32:11;;;;;;;7.78;4.88;;;11.10;99.90;;;;;;5039145;28;20073;-84
2023/10/23 10:34:46;;;;;;;11.80;6.72;;;11.10;99.90;;;;;;5045602;28;20044;-82
2023/10/23 10:37:12;;;;;;;11.07;6.28;;;11.30;99.90;;;;;;5064926;28;20075;-82
2023/10/23 10:39:46;;;;;;;10.70;6.85;;;11.40;99.90;;;;;;5030951;28;20041;-82
2023/10/23 10:42:34;;;;;;;14.18;7.22;;;11.50;99.90;;;;;;5043762;28;20092;-75
2023/10/23 10:45:15;;;;;;;8.20;5.35;;;11.70;99.90;;;;;;5046333;28;20029;-77
2023/10/23 10:47:40;;;;;;;12.05;5.75;;;11.80;99.90;;;;;;5024281;28;20131;-77
2023/10/23 10:50:07;;;;;;;10.85;6.00;;;11.90;99.90;;;;;;5028346;28;20119;-77
2023/10/23 10:52:34;;;;;;;9.38;6.25;;;12.00;99.90;;;;;;5045257;28;20041;-76
2023/10/23 10:55:00;;;;;;;10.68;6.10;;;12.10;99.90;;;;;;5032019;28;20068;-76
2023/10/23 10:57:27;;;;;;;7.40;5.10;;;12.20;99.90;;;;;;5042290;28;20414;-76
2023/10/23 11:00:00;;;;;;;8.25;5.30;;;12.30;99.90;;;;;;5036499;28;20442;-76
2023/10/23 11:02:25;;;;;;;8.52;6.25;;;12.40;99.90;;;;;;5015435;28;20498;-77
2023/10/23 11:04:51;;;;;;;14.15;8.27;;;12.50;99.90;;;;;;5041751;28;20065;-77
2023/10/23 11:07:25;;;;;;;12.02;7.70;;;12.60;99.90;;;;;;5046996;28;20040;-80
2023/10/23 11:09:51;;;;;;;12.43;8.35;;;12.70;99.90;;;;;;5057680;28;20131;-79
2023/10/23 11:12:18;;;;;;;13.40;8.10;;;12.80;99.90;;;;;;5035568;28;20102;-79
2023/10/23 11:14:44;;;;;;;12.18;8.55;;;12.90;99.90;;;;;;5037111;28;20431;-79
2023/10/23 11:17:11;;;;;;;11.98;8.25;;;12.90;99.90;;;;;;5043486;28;20055;-79
2023/10/23 11:19:37;;;;;;;11.18;7.82;;;12.90;99.90;;;;;;5045272;28;20041;-79
2023/10/23 11:22:07;;;;;;;11.07;8.32;;;12.90;99.90;;;;;;5043680;28;20052;-79
2023/10/23 11:24:32;;;;;;;13.40;8.75;;;13.00;99.90;;;;;;5030162;28;20433;-78
2023/10/23 11:26:58;;;;;;;11.63;9.07;;;13.00;99.90;;;;;;5037117;28;20045;-78
2023/10/23 11:29:24;;;;;;;13.52;8.82;;;13.00;99.90;;;;;;5032025;28;20051;-78
2023/10/23 11:31:51;;;;;;;13.68;8.77;;;12.90;99.90;;;;;;5043952;28;20561;-78
2023/10/23 11:34:17;;;;;;;10.95;8.30;;;12.90;99.90;;;;;;5060232;28;20639;-78
2023/10/23 11:36:42;;;;;;;12.20;8.05;;;12.90;99.90;;;;;;5021206;28;20033;-78
2023/10/23 11:39:09;;;;;;;11.85;8.27;;;12.80;99.90;;;;;;5044659;28;20048;-78
2023/10/23 11:41:35;;;;;;;12.27;7.90;;;12.80;99.90;;;;;;5025853;28;20092;-79
2023/10/23 11:44:03;;;;;;;11.30;8.20;;;12.80;99.90;;;;;;5042765;28;20044;-78
2023/10/23 11:46:29;;;;;;;10.75;7.53;;;12.90;99.90;;;;;;5047703;28;20496;-79
2023/10/23 11:48:54;;;;;;;10.23;7.10;;;12.80;99.90;;;;;;5038288;28;20120;-78
2023/10/23 11:51:21;;;;;;;10.85;7.30;;;12.80;99.90;;;;;;5029128;28;20132;-78
2023/10/23 11:53:47;;;;;;;12.52;8.40;;;12.80;99.90;;;;;;5045983;28;20049;-78
2023/10/23 11:56:12;;;;;;;10.50;7.88;;;12.80;99.90;;;;;;5042367;28;20073;-79
2023/10/23 11:58:38;;;;;;;10.38;6.93;;;12.80;99.90;;;;;;5040578;28;20045;-78
2023/10/23 12:01:04;;;;;;;12.68;7.28;;;12.80;99.90;;;;;;5031173;28;20041;-78
2023/10/23 12:03:30;;;;;;;10.82;7.75;;;12.90;99.90;;;;;;5030007;28;20507;-78
2023/10/23 12:05:56;;;;;;;9.82;6.82;;;12.90;99.90;;;;;;5035291;28;20083;-79
2023/10/23 12:08:22;;;;;;;11.30;7.15;;;12.90;99.90;;;;;;5038654;28;20037;-77
2023/10/23 12:10:47;;;;;;;12.00;7.70;;;12.70;99.90;;;;;;5045505;28;20059;-78
2023/10/23 12:13:13;;;;;;;10.80;7.38;;;12.60;99.90;;;;;;5029246;28;20047;-78
2023/10/23 12:15:39;;;;;;;11.63;7.43;;;12.60;99.90;;;;;;5052965;28;20044;-74
2023/10/23 12:18:05;;;;;;;9.70;6.63;;;12.70;99.90;;;;;;5039708;28;20079;-78
2023/10/23 12:20:31;;;;;;;9.68;6.63;;;12.60;99.90;;;;;;5029922;28;20041;-78
2023/10/23 12:22:57;;;;;;;9.50;6.55;;;12.80;99.90;;;;;;5034089;28;20044;-78
2023/10/23 12:25:22;;;;;;;9.25;6.20;;;12.70;99.90;;;;;;5031400;28;20426;-78
2023/10/23 12:27:48;;;;;;;10.38;7.20;;;12.70;99.90;;;;;;5028031;28;20048;-78
2023/10/23 12:30:17;;;;;;;11.23;7.03;;;12.70;99.90;;;;;;5040607;28;20461;-78
2023/10/23 12:32:42;;;;;;;10.45;7.38;;;12.60;99.90;;;;;;5016223;28;20045;-78
2023/10/23 12:35:09;;;;;;;10.95;7.38;;;12.60;99.90;;;;;;5023475;28;20449;-78
2023/10/23 12:37:37;;;;;;;14.15;7.75;;;12.60;99.90;;;;;;5055377;28;20037;-78
2023/10/23 12:40:08;;;;;;;11.15;7.95;;;12.50;99.90;;;;;;5042596;28;20376;-78
2023/10/23 12:42:34;;;;;;;12.40;8.07;;;12.60;99.90;;;;;;5051685;28;21985;-78